Time;durP1;ratioP1;P1;durP2;ratioP2;P2;SDS_P1;SDS_P2;PMS_P1;PMS_P2;Temp;Humidity;BMP_temperature;BMP_pressure;BME280_temperature;BME280_humidity;BME280_pressure;Samples;Min_cycle;Max_cycle;Signal;HPM_P1;HPM_P2
2022/01/16 00:00:32;;;;;;;74.17;29.33;;;-1.30;99.90;;;;;;4917571;29;20302;-72
2022/01/16 00:05:25;;;;;;;124.87;32.10;;;-1.50;99.90;;;;;;4917217;29;20191;-72
2022/01/16 00:07:51;;;;;;;110.93;31.10;;;-1.60;99.90;;;;;;4917312;29;20191;-72
2022/01/16 00:10:18;;;;;;;135.57;33.13;;;-1.60;99.90;;;;;;4917647;29;20187;-72
2022/01/16 00:12:48;;;;;;;76.97;33.43;;;-1.60;99.90;;;;;;4916313;29;20179;-72
2022/01/16 00:15:19;;;;;;;153.40;35.23;;;-1.60;99.90;;;;;;4916885;29;20251;-73
2022/01/16 00:18:29;;;;;;;112.13;33.07;;;-1.60;99.90;;;;;;4917463;29;20191;-73
2022/01/16 00:20:33;;;;;;;165.70;35.37;;;-1.50;99.90;;;;;;4909272;29;20275;-73
2022/01/16 00:22:59;;;;;;;155.80;34.13;;;-1.50;99.90;;;;;;4917312;29;20665;-72
2022/01/16 00:25:25;;;;;;;94.63;31.47;;;-1.60;99.90;;;;;;4916644;29;20200;-73
2022/01/16 00:27:51;;;;;;;90.30;33.27;;;-1.60;99.90;;;;;;4916873;29;20230;-73
2022/01/16 00:30:18;;;;;;;105.83;35.60;;;-1.50;99.90;;;;;;4917355;29;20184;-73
2022/01/16 00:32:44;;;;;;;95.80;34.30;;;-1.40;99.90;;;;;;4917147;29;20202;-73
2022/01/16 00:35:14;;;;;;;126.73;31.97;;;-1.40;99.90;;;;;;4916355;29;20707;-72
2022/01/16 00:37:40;;;;;;;111.07;30.87;;;-1.40;99.90;;;;;;4916995;29;20188;-72
2022/01/16 00:40:08;;;;;;;97.53;32.33;;;-1.40;99.90;;;;;;4916843;29;20255;-73
2022/01/16 00:42:34;;;;;;;161.77;32.00;;;-1.30;99.90;;;;;;4916673;29;20921;-72
2022/01/16 00:45:00;;;;;;;202.27;31.17;;;-1.50;99.90;;;;;;4916406;29;20203;-73
2022/01/16 00:47:25;;;;;;;215.33;31.80;;;-1.80;99.90;;;;;;4916857;29;20192;-72
2022/01/16 00:49:51;;;;;;;102.27;28.53;;;-1.70;99.90;;;;;;4916671;29;20176;-72
2022/01/16 00:52:16;;;;;;;131.60;29.70;;;-1.70;99.90;;;;;;4916799;29;20187;-72
2022/01/16 00:54:42;;;;;;;116.57;29.43;;;-1.60;99.90;;;;;;4916190;29;20642;-72
2022/01/16 00:57:07;;;;;;;117.00;29.90;;;-1.60;99.90;;;;;;4907417;29;20607;-72
2022/01/16 00:59:33;;;;;;;130.33;30.57;;;-1.60;99.90;;;;;;4912734;29;20649;-72
2022/01/16 01:02:00;;;;;;;95.80;29.60;;;-1.50;99.90;;;;;;4899127;29;20276;-72
2022/01/16 01:04:26;;;;;;;102.77;29.97;;;-1.40;99.90;;;;;;4900430;29;20556;-73
2022/01/16 01:06:51;;;;;;;79.87;29.27;;;-1.40;99.90;;;;;;4916477;29;20208;-73
2022/01/16 01:09:18;;;;;;;98.63;30.07;;;-1.30;99.90;;;;;;4916442;29;20185;-73
2022/01/16 01:11:46;;;;;;;75.60;29.53;;;-1.20;99.90;;;;;;4916546;29;20195;-73
2022/01/16 01:14:37;;;;;;;136.10;30.57;;;-1.20;99.90;;;;;;4903356;29;20642;-74
2022/01/16 01:17:03;;;;;;;108.23;29.10;;;-1.20;99.90;;;;;;4897569;29;20191;-73
2022/01/16 01:19:33;;;;;;;301.00;35.03;;;-1.20;99.90;;;;;;4897508;29;20297;-73
2022/01/16 01:22:00;;;;;;;112.57;29.97;;;-1.20;99.90;;;;;;4897405;29;20244;-73
2022/01/16 01:24:27;;;;;;;206.43;31.73;;;-1.40;99.90;;;;;;4899704;29;20300;-73
2022/01/16 01:27:35;;;;;;;124.03;29.73;;;-1.50;99.90;;;;;;4899928;29;20227;-73
2022/01/16 01:29:48;;;;;;;89.97;28.60;;;-1.50;99.90;;;;;;4892276;29;20212;-73
2022/01/16 01:32:14;;;;;;;163.27;32.83;;;-1.40;99.90;;;;;;4916016;29;20190;-72
2022/01/16 01:34:39;;;;;;;157.70;32.47;;;-1.40;99.90;;;;;;4915747;29;20192;-72
2022/01/16 01:37:05;;;;;;;219.30;33.60;;;-1.30;99.90;;;;;;4916166;29;20187;-72
2022/01/16 01:39:30;;;;;;;137.57;31.43;;;-1.40;99.90;;;;;;4915971;29;20199;-73
2022/01/16 01:42:05;;;;;;;92.13;27.37;;;-1.30;99.90;;;;;;4915952;29;20215;-72
2022/01/16 01:53:05;;;;;;;117.97;24.33;;;-1.10;99.90;;;;;;4857282;29;20237;-73
2022/01/16 01:55:30;;;;;;;84.20;20.47;;;-1.10;99.90;;;;;;4856791;29;20217;-73
2022/01/16 01:57:56;;;;;;;51.10;21.07;;;-1.10;99.90;;;;;;4875791;29;20192;-73
2022/01/16 02:00:22;;;;;;;111.20;22.10;;;-1.00;99.90;;;;;;4896717;29;20545;-73
2022/01/16 02:05:24;;;;;;;83.83;23.33;;;-0.90;99.90;;;;;;4896276;29;20253;-72
2022/01/16 02:07:50;;;;;;;136.40;24.30;;;-0.90;99.90;;;;;;4896619;29;20243;-72
2022/01/16 02:10:15;;;;;;;55.87;24.77;;;-0.90;99.90;;;;;;4879926;29;20192;-73
2022/01/16 02:12:44;;;;;;;60.00;24.93;;;-0.80;99.90;;;;;;4896805;29;20187;-73
2022/01/16 02:29:51;;;;;;;177.30;28.07;;;-0.90;99.90;;;;;;4896475;29;20214;-73
2022/01/16 02:32:12;;;;;;;88.37;24.97;;;-1.20;99.90;;;;;;4905450;29;20227;-73
2022/01/16 02:34:41;;;;;;;89.23;26.77;;;-1.10;99.90;;;;;;4914813;29;20182;-72
2022/01/16 02:37:10;;;;;;;76.93;26.13;;;-1.00;99.90;;;;;;4917486;29;20641;-72
2022/01/16 02:39:40;;;;;;;69.97;26.33;;;-1.10;99.90;;;;;;4919410;29;20194;-73
2022/01/16 02:42:08;;;;;;;61.97;23.10;;;-1.00;99.90;;;;;;4919219;29;20230;-72
2022/01/16 02:44:43;;;;;;;55.73;26.63;;;-1.10;99.90;;;;;;4918631;29;20202;-72
2022/01/16 02:47:13;;;;;;;68.23;23.80;;;-1.00;99.90;;;;;;4919063;29;20190;-73
2022/01/16 02:49:40;;;;;;;78.40;24.43;;;-0.90;99.90;;;;;;4919314;29;20200;-73
2022/01/16 02:52:11;;;;;;;49.93;25.17;;;-0.90;99.90;;;;;;4919243;29;20207;-73
2022/01/16 02:54:40;;;;;;;60.00;23.87;;;-0.90;99.90;;;;;;4918600;29;20199;-73
2022/01/16 02:57:07;;;;;;;56.33;22.17;;;-0.80;99.90;;;;;;4919005;29;20184;-73
2022/01/16 02:59:34;;;;;;;46.13;21.57;;;-1.00;99.90;;;;;;4918746;29;20254;-73
2022/01/16 03:02:03;;;;;;;44.63;20.80;;;-0.90;99.90;;;;;;4919267;29;20318;-73
2022/01/16 03:04:29;;;;;;;44.27;20.27;;;-0.90;99.90;;;;;;4919326;29;20271;-73
2022/01/16 03:06:57;;;;;;;49.90;19.80;;;-0.90;99.90;;;;;;4919660;29;20187;-73
2022/01/16 03:09:24;;;;;;;129.77;21.40;;;-1.00;99.90;;;;;;4918795;29;20642;-73
2022/01/16 03:11:50;;;;;;;35.67;18.93;;;-1.30;99.90;;;;;;4918700;29;20180;-73
2022/01/16 03:14:18;;;;;;;39.10;19.63;;;-1.40;99.90;;;;;;4919637;29;20180;-73
2022/01/16 03:16:48;;;;;;;38.07;20.20;;;-1.20;99.90;;;;;;4918457;29;20669;-72
2022/01/16 03:22:03;;;;;;;46.87;20.87;;;-1.10;99.90;;;;;;4918660;29;20945;-73
2022/01/16 03:24:39;;;;;;;51.77;20.23;;;-1.10;99.90;;;;;;4918039;29;20195;-73
2022/01/16 03:27:16;;;;;;;58.07;20.50;;;-1.20;99.90;;;;;;4918279;29;20204;-72
2022/01/16 03:29:44;;;;;;;51.40;20.07;;;-1.20;99.90;;;;;;4918651;29;20192;-73
2022/01/16 03:32:14;;;;;;;58.83;20.80;;;-1.20;99.90;;;;;;4918433;29;20188;-73
2022/01/16 03:34:40;;;;;;;43.27;20.60;;;-1.10;99.90;;;;;;4917821;29;20239;-73
2022/01/16 03:37:06;;;;;;;47.50;20.00;;;-1.00;99.90;;;;;;4918120;29;20180;-74
2022/01/16 03:39:31;;;;;;;92.13;21.47;;;-0.90;99.90;;;;;;4918127;29;20186;-73
2022/01/16 03:42:00;;;;;;;143.60;23.13;;;-1.30;99.90;;;;;;4918369;29;20222;-73
2022/01/16 03:44:25;;;;;;;109.10;19.63;;;-1.50;99.90;;;;;;4917746;29;20176;-73
2022/01/16 03:46:51;;;;;;;57.50;21.30;;;-1.70;99.90;;;;;;4917967;29;20550;-73
2022/01/16 03:49:20;;;;;;;51.27;20.67;;;-1.60;99.90;;;;;;4918099;29;20184;-73
2022/01/16 03:51:48;;;;;;;169.47;22.63;;;-1.60;99.90;;;;;;4917903;29;20176;-73
2022/01/16 03:54:19;;;;;;;110.60;22.00;;;-1.80;99.90;;;;;;4917724;29;20188;-73
2022/01/16 03:56:45;;;;;;;81.73;21.33;;;-1.80;99.90;;;;;;4917858;29;20207;-73
2022/01/16 03:59:11;;;;;;;64.07;21.97;;;-1.90;99.90;;;;;;4917886;29;20180;-73
2022/01/16 04:01:37;;;;;;;57.43;19.70;;;-1.70;99.90;;;;;;4917702;29;20219;-73
2022/01/16 04:04:03;;;;;;;51.53;19.60;;;-1.70;99.90;;;;;;4917686;29;20206;-73
2022/01/16 04:06:29;;;;;;;84.00;20.80;;;-1.80;99.90;;;;;;4917017;29;20233;-73
2022/01/16 04:08:55;;;;;;;106.90;20.97;;;-1.80;99.90;;;;;;4917892;29;20200;-73
2022/01/16 04:11:22;;;;;;;49.07;20.00;;;-2.00;99.90;;;;;;4917827;29;20191;-73
2022/01/16 04:13:51;;;;;;;95.40;20.20;;;-1.80;99.90;;;;;;4917757;29;20191;-73
2022/01/16 04:16:19;;;;;;;52.43;19.73;;;-1.90;99.90;;;;;;4917088;29;20210;-73
2022/01/16 04:18:49;;;;;;;56.90;19.17;;;-1.90;99.90;;;;;;4917572;29;20187;-72
2022/01/16 04:21:14;;;;;;;75.17;20.57;;;-1.70;99.90;;;;;;4917271;29;20226;-73
2022/01/16 04:23:40;;;;;;;104.90;20.33;;;-1.60;99.90;;;;;;4917626;29;20271;-73
2022/01/16 04:26:05;;;;;;;83.13;20.23;;;-1.80;99.90;;;;;;4916889;29;20584;-73
2022/01/16 04:28:31;;;;;;;63.33;19.07;;;-1.90;99.90;;;;;;4917000;29;20192;-73
2022/01/16 04:30:56;;;;;;;136.20;20.80;;;-2.00;99.90;;;;;;4917499;29;20191;-73
2022/01/16 04:33:22;;;;;;;212.10;22.73;;;-2.10;99.90;;;;;;4917213;29;20187;-73
2022/01/16 04:35:47;;;;;;;100.57;21.77;;;-2.20;99.90;;;;;;4916518;29;20210;-73
2022/01/16 04:38:13;;;;;;;60.07;19.40;;;-2.30;99.90;;;;;;4917270;29;20203;-73
2022/01/16 04:43:47;;;;;;;85.93;20.37;;;-2.10;99.90;;;;;;4917217;29;20194;-73
2022/01/16 04:46:11;;;;;;;35.40;18.33;;;-2.30;99.90;;;;;;4916469;29;20295;-73
2022/01/16 04:48:37;;;;;;;78.30;20.53;;;-2.20;99.90;;;;;;4917137;29;20211;-73
2022/01/16 04:51:02;;;;;;;62.77;20.63;;;-2.10;99.90;;;;;;4916900;29;20183;-73
2022/01/16 04:53:28;;;;;;;71.07;19.93;;;-2.10;99.90;;;;;;4916852;29;20212;-73
2022/01/16 04:55:54;;;;;;;35.03;18.63;;;-2.00;99.90;;;;;;4916298;29;20204;-73
2022/01/16 04:58:21;;;;;;;89.43;20.47;;;-1.80;99.90;;;;;;4916498;29;20196;-73
2022/01/16 05:00:46;;;;;;;42.57;19.03;;;-1.90;99.90;;;;;;4899171;29;20267;-73
2022/01/16 05:03:12;;;;;;;72.87;18.87;;;-1.80;99.90;;;;;;4916866;29;20575;-73
2022/01/16 05:05:38;;;;;;;126.87;20.87;;;-1.90;99.90;;;;;;4916203;29;20653;-73
2022/01/16 05:08:03;;;;;;;90.93;19.47;;;-1.80;99.90;;;;;;4916469;29;20184;-73
2022/01/16 05:10:29;;;;;;;75.30;18.53;;;-2.10;99.90;;;;;;4916676;29;20187;-73
2022/01/16 05:13:04;;;;;;;38.80;18.00;;;-2.00;99.90;;;;;;4916504;29;20549;-72
2022/01/16 05:18:14;;;;;;;43.60;19.60;;;-2.10;99.90;;;;;;4916457;29;20593;-72
2022/01/16 05:20:39;;;;;;;51.87;19.67;;;-2.00;99.90;;;;;;4916354;29;20262;-72
2022/01/16 05:23:05;;;;;;;41.63;18.83;;;-2.10;99.90;;;;;;4916446;29;20573;-72
2022/01/16 05:25:31;;;;;;;119.00;20.63;;;-2.00;99.90;;;;;;4915725;29;20544;-73
2022/01/16 05:27:56;;;;;;;43.97;19.47;;;-2.10;99.90;;;;;;4916124;29;20290;-73
2022/01/16 05:30:22;;;;;;;44.07;19.40;;;-2.10;99.90;;;;;;4916146;29;20567;-73
2022/01/16 05:32:47;;;;;;;53.00;18.80;;;-2.00;99.90;;;;;;4916322;29;20183;-73
2022/01/16 05:35:13;;;;;;;49.47;18.27;;;-2.00;99.90;;;;;;4915635;29;20203;-72
2022/01/16 05:37:38;;;;;;;77.13;18.30;;;-2.00;99.90;;;;;;4916363;29;20180;-73
2022/01/16 05:40:04;;;;;;;94.93;17.70;;;-2.10;99.90;;;;;;4917172;29;20267;-72
2022/01/16 05:42:32;;;;;;;119.63;17.83;;;-2.10;99.90;;;;;;4915758;29;20234;-72
2022/01/16 05:44:58;;;;;;;86.63;17.87;;;-2.30;99.90;;;;;;4915635;29;20196;-73
2022/01/16 05:47:23;;;;;;;163.03;19.37;;;-2.40;99.90;;;;;;4916019;29;20188;-73
2022/01/16 05:49:49;;;;;;;117.83;17.63;;;-2.50;99.90;;;;;;4915937;29;20199;-73
2022/01/16 05:52:14;;;;;;;74.93;16.40;;;-2.60;99.90;;;;;;4915955;29;20709;-73
2022/01/16 05:54:40;;;;;;;107.13;17.47;;;-2.50;99.90;;;;;;4915215;29;20180;-73
2022/01/16 05:57:06;;;;;;;266.23;63.87;;;-2.60;99.90;;;;;;4915706;29;20183;-73
2022/01/16 05:59:32;;;;;;;147.83;28.30;;;-2.50;99.90;;;;;;4915688;29;20194;-73
2022/01/16 06:01:57;;;;;;;43.93;16.70;;;-2.50;99.90;;;;;;4915766;29;20306;-73
2022/01/16 06:04:23;;;;;;;111.63;16.47;;;-2.40;99.90;;;;;;4915426;29;20555;-73
2022/01/16 06:06:49;;;;;;;80.33;20.30;;;-2.90;99.90;;;;;;4915652;29;20214;-73
2022/01/16 06:09:14;;;;;;;42.30;15.57;;;-3.10;99.90;;;;;;4915673;29;20273;-73
2022/01/16 06:11:40;;;;;;;52.37;15.70;;;-3.10;99.90;;;;;;4914610;29;20183;-73
2022/01/16 06:14:05;;;;;;;24.80;14.97;;;-2.90;99.90;;;;;;4915720;29;20688;-73
2022/01/16 06:16:31;;;;;;;29.00;14.07;;;-2.70;99.90;;;;;;4915109;29;20248;-73
2022/01/16 06:18:56;;;;;;;42.47;13.80;;;-2.70;99.90;;;;;;4915511;29;20183;-73
2022/01/16 06:21:22;;;;;;;77.27;24.77;;;-2.80;99.90;;;;;;4915471;29;20554;-73
2022/01/16 06:23:47;;;;;;;55.67;18.77;;;-2.80;99.90;;;;;;4915456;29;20202;-73
2022/01/16 06:26:13;;;;;;;96.00;17.33;;;-2.80;99.90;;;;;;4914767;29;20657;-73
2022/01/16 06:28:38;;;;;;;111.10;17.03;;;-3.00;99.90;;;;;;4915613;29;20290;-73
2022/01/16 06:31:04;;;;;;;49.80;15.70;;;-3.10;99.90;;;;;;4915605;29;20180;-73
2022/01/16 06:33:29;;;;;;;83.27;16.37;;;-3.20;99.90;;;;;;4915551;29;20187;-73
2022/01/16 06:35:55;;;;;;;54.27;15.77;;;-3.30;99.90;;;;;;4914824;29;20202;-73
2022/01/16 06:38:20;;;;;;;58.23;14.57;;;-3.40;99.90;;;;;;4915342;29;20188;-72
2022/01/16 06:40:46;;;;;;;121.27;17.03;;;-3.50;99.90;;;;;;4915238;29;20211;-73
2022/01/16 06:43:11;;;;;;;175.37;17.30;;;-3.60;99.90;;;;;;4915504;29;20207;-73
2022/01/16 06:45:37;;;;;;;78.80;15.87;;;-3.70;99.90;;;;;;4914868;29;20218;-72
2022/01/16 06:48:03;;;;;;;28.77;14.87;;;-3.60;99.90;;;;;;4915391;29;20195;-73
2022/01/16 06:50:28;;;;;;;22.60;13.97;;;-3.30;99.90;;;;;;4915154;29;20662;-72
2022/01/16 06:52:54;;;;;;;42.23;22.03;;;-3.10;99.90;;;;;;4915121;29;20664;-73
2022/01/16 06:55:20;;;;;;;53.23;17.17;;;-3.30;99.90;;;;;;4914621;29;20234;-73
2022/01/16 06:57:45;;;;;;;76.23;16.53;;;-3.20;99.90;;;;;;4915334;29;20180;-73
2022/01/16 07:00:11;;;;;;;55.40;16.97;;;-3.30;99.90;;;;;;4915351;29;20191;-73
2022/01/16 07:02:36;;;;;;;70.63;17.83;;;-3.40;99.90;;;;;;4915070;29;20782;-73
2022/01/16 07:05:04;;;;;;;42.60;17.67;;;-3.20;99.90;;;;;;4914708;29;20200;-73
2022/01/16 07:07:30;;;;;;;70.27;17.03;;;-3.10;99.90;;;;;;4915156;29;20214;-73
2022/01/16 07:09:56;;;;;;;85.90;16.97;;;-3.50;99.90;;;;;;4915009;29;20650;-73
2022/01/16 07:12:21;;;;;;;66.20;16.30;;;-3.70;99.90;;;;;;4915249;29;20191;-73
2022/01/16 07:14:48;;;;;;;84.13;18.13;;;-3.50;99.90;;;;;;4914657;29;20203;-73
2022/01/16 07:17:13;;;;;;;42.17;16.33;;;-3.70;99.90;;;;;;4915435;29;20514;-73
2022/01/16 07:19:39;;;;;;;46.37;19.93;;;-3.60;99.90;;;;;;4915097;29;20668;-73
2022/01/16 07:22:05;;;;;;;75.50;17.23;;;-3.60;99.90;;;;;;4915582;29;20247;-73
2022/01/16 07:24:30;;;;;;;38.57;17.07;;;-3.70;99.90;;;;;;4917729;29;20183;-73
2022/01/16 07:29:30;;;;;;;42.63;18.20;;;-3.50;99.90;;;;;;4956355;29;20210;-76
2022/01/16 07:31:56;;;;;;;32.07;16.73;;;-3.30;99.90;;;;;;4957001;29;20174;-77
2022/01/16 07:34:22;;;;;;;29.20;17.87;;;-3.20;99.90;;;;;;4956765;29;20201;-77
2022/01/16 07:36:47;;;;;;;36.13;18.80;;;-3.00;99.90;;;;;;4950480;28;20656;-76
2022/01/16 07:39:13;;;;;;;35.83;19.63;;;-2.70;99.90;;;;;;4937877;28;20205;-77
2022/01/16 07:41:39;;;;;;;33.83;18.93;;;-2.30;99.90;;;;;;4946880;28;20270;-76
2022/01/16 07:44:04;;;;;;;33.87;18.47;;;-2.10;99.90;;;;;;4953381;28;20234;-75
2022/01/16 07:46:30;;;;;;;41.50;24.03;;;-2.40;99.90;;;;;;4944431;29;20680;-75
2022/01/16 07:48:56;;;;;;;33.30;18.03;;;-2.60;99.90;;;;;;4947663;29;20171;-75
2022/01/16 07:51:22;;;;;;;31.87;17.77;;;-2.50;99.90;;;;;;4956438;29;20182;-76
2022/01/16 07:53:48;;;;;;;29.07;17.17;;;-2.60;99.90;;;;;;4956083;28;21044;-76
2022/01/16 07:56:13;;;;;;;30.00;18.03;;;-2.50;99.90;;;;;;4955757;29;20198;-77
2022/01/16 07:58:39;;;;;;;33.33;18.33;;;-2.60;99.90;;;;;;4956207;29;20179;-76
2022/01/16 08:01:04;;;;;;;35.03;17.00;;;-2.50;99.90;;;;;;4946863;28;20203;-76
2022/01/16 08:03:30;;;;;;;30.00;17.90;;;-2.50;99.90;;;;;;4942798;28;20179;-76
2022/01/16 08:05:55;;;;;;;34.03;18.37;;;-2.40;99.90;;;;;;4936771;29;20552;-77
2022/01/16 08:08:21;;;;;;;31.03;18.07;;;-2.30;99.90;;;;;;4948791;29;20186;-76
2022/01/16 08:10:46;;;;;;;40.07;17.50;;;-2.30;99.90;;;;;;4951479;29;20647;-75
2022/01/16 08:13:12;;;;;;;30.63;16.43;;;-2.30;99.90;;;;;;4945112;28;20604;-76
2022/01/16 08:15:38;;;;;;;36.30;16.97;;;-2.40;99.90;;;;;;4943718;29;20195;-76
2022/01/16 08:18:03;;;;;;;34.27;17.00;;;-2.20;99.90;;;;;;4946195;29;20528;-76
2022/01/16 08:20:29;;;;;;;31.73;16.87;;;-2.20;99.90;;;;;;4946214;29;20222;-75
2022/01/16 08:22:55;;;;;;;32.77;17.60;;;-2.20;99.90;;;;;;4944213;29;20223;-75
2022/01/16 08:25:21;;;;;;;26.87;16.50;;;-2.20;99.90;;;;;;4945821;28;20720;-75
2022/01/16 08:27:47;;;;;;;25.50;16.07;;;-2.00;99.90;;;;;;4956493;29;20222;-77
2022/01/16 08:30:13;;;;;;;27.07;15.73;;;-1.70;99.90;;;;;;4956210;29;20193;-77
2022/01/16 08:32:39;;;;;;;22.77;14.67;;;-1.30;99.90;;;;;;4953818;29;20221;-77
2022/01/16 08:35:06;;;;;;;21.47;14.70;;;0.60;26.60;;;;;;4953617;28;20319;-76
2022/01/16 08:37:32;;;;;;;19.47;13.77;;;1.70;99.90;;;;;;4955299;28;20190;-76
2022/01/16 08:39:57;;;;;;;20.57;13.97;;;2.50;1.00;;;;;;4957407;28;20175;-77
2022/01/16 08:42:23;;;;;;;21.03;14.57;;;2.90;99.90;;;;;;4958782;28;20214;-76
2022/01/16 08:44:51;;;;;;;19.47;13.80;;;3.20;99.90;;;;;;4964305;29;20202;-76
2022/01/16 08:47:18;;;;;;;21.37;15.43;;;3.60;1.00;;;;;;4957809;28;20527;-76
2022/01/16 08:49:43;;;;;;;20.03;15.63;;;4.00;99.90;;;;;;4955272;28;20170;-75
2022/01/16 08:52:09;;;;;;;20.30;14.90;;;4.70;1.00;;;;;;4956427;28;20647;-76
2022/01/16 08:54:34;;;;;;;20.77;16.57;;;3.80;1.00;;;;;;4955071;29;20270;-76
2022/01/16 08:57:01;;;;;;;18.40;14.70;;;3.20;78.30;;;;;;4955284;28;20212;-79
2022/01/16 08:59:27;;;;;;;88.47;18.03;;;2.60;1.00;;;;;;4955477;29;20185;-79
2022/01/16 09:01:53;;;;;;;27.50;19.37;;;1.90;99.90;;;;;;4956870;28;20211;-77
2022/01/16 09:04:18;;;;;;;24.03;17.40;;;1.20;99.90;;;;;;4945277;29;20257;-79
2022/01/16 09:06:44;;;;;;;29.03;17.43;;;0.70;1.00;;;;;;4947034;29;20202;-77
2022/01/16 09:09:09;;;;;;;33.73;16.70;;;1.40;1.00;;;;;;4953257;29;20189;-78
2022/01/16 09:11:35;;;;;;;21.67;15.60;;;1.30;1.00;;;;;;4956151;28;20186;-79
2022/01/16 09:14:00;;;;;;;31.17;19.60;;;1.60;1.00;;;;;;4947773;28;20183;-80
2022/01/16 09:16:26;;;;;;;22.70;17.27;;;1.80;1.00;;;;;;4953424;28;20206;-76
2022/01/16 09:18:52;;;;;;;21.33;16.57;;;1.50;1.00;;;;;;4947337;29;20176;-78
2022/01/16 09:21:19;;;;;;;23.37;16.97;;;1.30;1.00;;;;;;4965747;28;20210;-80
2022/01/16 09:23:49;;;;;;;23.73;16.37;;;0.90;1.00;;;;;;4956168;28;20321;-79
2022/01/16 09:26:15;;;;;;;24.33;17.47;;;0.50;1.00;;;;;;4955558;29;20206;-78
2022/01/16 09:28:42;;;;;;;28.37;19.03;;;0.40;1.00;;;;;;4935141;29;20207;-79
2022/01/16 09:31:08;;;;;;;24.27;17.87;;;0.40;1.00;;;;;;4937701;29;20171;-79
2022/01/16 09:33:34;;;;;;;30.30;18.97;;;0.70;1.00;;;;;;4937897;29;20182;-77
2022/01/16 09:36:01;;;;;;;28.27;19.23;;;0.70;1.00;;;;;;4938108;29;20207;-78
2022/01/16 09:38:27;;;;;;;27.13;18.17;;;1.10;1.00;;;;;;4936519;29;20572;-77
2022/01/16 09:40:54;;;;;;;28.73;18.37;;;1.20;1.00;;;;;;4936813;29;20214;-78
2022/01/16 09:43:20;;;;;;;27.13;18.50;;;1.80;1.00;;;;;;4936400;29;20647;-78
2022/01/16 09:45:46;;;;;;;28.03;19.30;;;1.70;1.00;;;;;;4935272;29;20267;-78
2022/01/16 09:48:12;;;;;;;23.93;17.13;;;1.90;1.00;;;;;;4936125;29;20183;-78
2022/01/16 09:50:37;;;;;;;25.67;18.77;;;2.20;99.90;;;;;;4936777;29;20179;-79
2022/01/16 09:53:04;;;;;;;25.57;17.67;;;1.90;1.00;;;;;;4943581;28;20825;-78
2022/01/16 09:55:29;;;;;;;25.37;18.53;;;2.60;99.90;;;;;;4948653;29;20199;-78
2022/01/16 09:57:57;;;;;;;23.77;18.20;;;2.60;1.00;;;;;;4947771;29;20207;-78
2022/01/16 10:00:24;;;;;;;25.23;16.93;;;4.00;99.90;;;;;;4949191;29;20183;-78
2022/01/16 10:02:50;;;;;;;24.43;17.33;;;4.20;99.90;;;;;;4949589;29;20203;-78
2022/01/16 10:05:26;;;;;;;22.73;17.27;;;3.80;1.00;;;;;;4948003;29;20246;-79
2022/01/16 10:07:54;;;;;;;23.47;17.17;;;3.50;1.00;;;;;;4942034;29;20185;-76
2022/01/16 10:10:23;;;;;;;23.80;17.53;;;4.00;99.90;;;;;;4942210;28;20663;-77
2022/01/16 10:12:51;;;;;;;22.93;17.03;;;4.50;1.00;;;;;;4925250;29;20182;-77
2022/01/16 10:15:20;;;;;;;22.13;17.23;;;3.60;1.00;;;;;;4936533;29;20218;-76
2022/01/16 10:17:48;;;;;;;21.60;17.73;;;4.50;1.00;;;;;;4934938;29;20179;-75
2022/01/16 10:20:16;;;;;;;22.63;17.67;;;5.00;99.90;;;;;;4934736;29;20274;-76
2022/01/16 10:22:47;;;;;;;23.50;18.50;;;3.30;1.00;;;;;;4934496;29;20675;-76
2022/01/16 10:25:15;;;;;;;24.83;18.73;;;2.50;99.90;;;;;;4933880;29;20243;-75
2022/01/16 10:27:42;;;;;;;23.87;17.73;;;2.20;1.00;;;;;;4934331;29;20201;-76
2022/01/16 10:30:12;;;;;;;26.33;19.53;;;1.50;1.00;;;;;;4934329;29;20676;-76
2022/01/16 10:32:44;;;;;;;26.80;19.03;;;1.20;1.00;;;;;;4934695;29;20237;-75
2022/01/16 10:35:11;;;;;;;25.53;19.37;;;1.40;1.00;;;;;;4933963;29;20199;-76
2022/01/16 10:37:40;;;;;;;26.77;20.20;;;1.20;18.60;;;;;;4934581;29;20179;-78
2022/01/16 10:40:17;;;;;;;26.27;19.53;;;1.10;61.50;;;;;;4934325;29;20187;-77
2022/01/16 10:42:49;;;;;;;28.77;19.90;;;1.20;54.00;;;;;;4934601;29;20301;-75
2022/01/16 10:45:17;;;;;;;26.50;18.67;;;1.10;92.90;;;;;;4933631;29;20587;-76
2022/01/16 10:47:51;;;;;;;27.70;19.23;;;1.60;15.80;;;;;;4934661;29;20175;-75
2022/01/16 10:50:38;;;;;;;28.87;19.70;;;2.10;1.00;;;;;;4934624;29;20190;-77
2022/01/16 10:53:13;;;;;;;27.33;19.03;;;2.50;1.00;;;;;;4934993;29;20181;-78
2022/01/16 10:55:47;;;;;;;25.43;18.30;;;2.30;1.00;;;;;;4934077;29;20206;-75
2022/01/16 10:58:19;;;;;;;25.27;18.63;;;2.50;1.00;;;;;;4936954;29;20181;-77
2022/01/16 11:01:00;;;;;;;24.90;17.40;;;2.90;1.00;;;;;;4938601;29;20821;-76
2022/01/16 11:03:27;;;;;;;23.53;17.70;;;2.80;1.00;;;;;;4937704;29;20183;-75
2022/01/16 11:05:53;;;;;;;24.93;18.90;;;3.10;99.90;;;;;;4937256;29;20278;-76
2022/01/16 11:08:22;;;;;;;25.90;18.30;;;3.10;1.00;;;;;;4938620;29;20215;-76
2022/01/16 11:10:56;;;;;;;25.40;17.07;;;2.90;99.90;;;;;;4943375;29;20183;-76
2022/01/16 11:13:34;;;;;;;26.27;17.60;;;3.20;99.90;;;;;;4957084;28;20179;-77
2022/01/16 11:16:03;;;;;;;24.43;17.97;;;3.20;99.90;;;;;;4957201;28;20541;-78
2022/01/16 11:18:30;;;;;;;21.67;17.40;;;4.00;1.00;;;;;;4958055;28;20257;-78
2022/01/16 11:21:14;;;;;;;21.63;17.00;;;4.60;1.00;;;;;;4956984;28;20276;-77
2022/01/16 11:26:10;;;;;;;24.23;18.20;;;4.20;1.00;;;;;;4956447;28;20206;-77
2022/01/16 11:28:35;;;;;;;25.60;18.83;;;4.50;1.00;;;;;;4957914;28;20220;-78
2022/01/16 11:31:04;;;;;;;25.87;18.73;;;4.00;1.00;;;;;;4960295;28;20182;-77
2022/01/16 11:33:32;;;;;;;25.77;18.60;;;3.40;99.90;;;;;;4962175;29;20174;-77
2022/01/16 11:36:07;;;;;;;26.90;18.90;;;3.00;1.00;;;;;;4960639;28;20218;-77
2022/01/16 11:38:36;;;;;;;23.13;17.90;;;3.10;1.00;;;;;;4963961;28;20178;-77
2022/01/16 11:41:15;;;;;;;23.13;17.83;;;3.00;1.00;;;;;;4960420;29;20206;-77
2022/01/16 11:43:44;;;;;;;26.10;19.47;;;2.60;1.00;;;;;;4970060;28;20178;-77
2022/01/16 11:46:15;;;;;;;28.03;19.53;;;2.70;1.00;;;;;;4964104;28;20470;-77
2022/01/16 11:48:42;;;;;;;31.43;21.30;;;2.60;1.00;;;;;;4968041;28;20175;-77
2022/01/16 11:51:40;;;;;;;26.60;19.87;;;2.70;1.00;;;;;;4964389;28;20209;-78
2022/01/16 11:54:22;;;;;;;28.93;20.03;;;2.70;1.00;;;;;;4903973;28;20182;-78
2022/01/16 11:56:49;;;;;;;28.23;18.27;;;2.70;1.00;;;;;;4958372;28;20194;-77
2022/01/16 11:59:16;;;;;;;25.73;18.17;;;2.60;1.00;;;;;;4961794;28;20178;-77
2022/01/16 12:01:55;;;;;;;27.73;19.57;;;2.50;1.00;;;;;;4960578;28;20308;-76
2022/01/16 12:04:29;;;;;;;26.87;19.43;;;2.60;1.00;;;;;;4960005;28;20329;-77
2022/01/16 12:06:58;;;;;;;27.33;19.40;;;2.50;1.00;;;;;;4959682;28;20182;-77
2022/01/16 12:12:23;;;;;;;30.20;19.80;;;2.60;1.00;;;;;;4957271;28;20170;-77
2022/01/16 12:14:59;;;;;;;28.73;19.30;;;2.50;1.00;;;;;;4947806;29;22263;-77
2022/01/16 12:17:43;;;;;;;28.87;19.57;;;2.50;1.00;;;;;;4940222;29;20187;-77
2022/01/16 12:20:15;;;;;;;32.27;20.47;;;2.40;1.00;;;;;;4938866;29;20187;-76
2022/01/16 12:23:05;;;;;;;30.67;21.47;;;2.30;1.00;;;;;;4938086;29;20691;-78
2022/01/16 12:25:56;;;;;;;32.03;20.43;;;2.30;1.00;;;;;;4939175;29;20282;-77
2022/01/16 12:28:25;;;;;;;29.80;20.27;;;2.10;1.00;;;;;;4937020;29;20261;-77
2022/01/16 12:30:59;;;;;;;34.43;20.87;;;2.20;1.00;;;;;;4937753;29;20190;-77
2022/01/16 12:33:29;;;;;;;32.43;21.70;;;2.20;1.00;;;;;;4937654;29;20619;-77
2022/01/16 12:35:54;;;;;;;34.77;22.50;;;2.30;1.00;;;;;;4937663;29;20206;-77
2022/01/16 12:38:23;;;;;;;37.67;23.00;;;2.30;1.00;;;;;;4937649;29;20179;-77
2022/01/16 12:41:01;;;;;;;43.73;26.77;;;2.30;1.00;;;;;;4936981;29;20582;-76
2022/01/16 12:43:30;;;;;;;43.67;26.00;;;2.30;1.00;;;;;;4939346;29;20193;-78
2022/01/16 12:45:58;;;;;;;38.33;25.10;;;2.30;1.00;;;;;;4944585;29;20574;-78
2022/01/16 12:48:23;;;;;;;43.33;25.13;;;2.30;1.00;;;;;;4946140;28;20187;-77
2022/01/16 12:50:51;;;;;;;34.50;21.93;;;2.30;1.00;;;;;;4946689;28;20179;-77
2022/01/16 12:53:56;;;;;;;36.37;22.83;;;2.30;1.00;;;;;;4944718;29;20183;-76
2022/01/16 12:56:30;;;;;;;34.90;21.87;;;2.30;1.00;;;;;;4887461;29;20192;-76
2022/01/16 12:59:35;;;;;;;35.93;23.57;;;2.20;7.60;;;;;;4935211;29;20185;-77
2022/01/16 13:02:03;;;;;;;34.33;21.50;;;2.30;1.00;;;;;;4899497;29;20230;-77
2022/01/16 13:04:34;;;;;;;32.97;21.93;;;2.30;8.30;;;;;;4928853;29;20183;-76
2022/01/16 13:07:15;;;;;;;33.53;20.93;;;2.40;1.00;;;;;;4935925;29;20187;-77
2022/01/16 13:09:41;;;;;;;31.73;21.27;;;2.40;1.00;;;;;;4935751;29;20175;-77
2022/01/16 13:12:11;;;;;;;32.43;21.57;;;2.40;4.40;;;;;;4936149;29;20186;-77
2022/01/16 13:14:39;;;;;;;62.90;25.10;;;2.60;2.50;;;;;;4937053;29;20382;-77
2022/01/16 13:17:08;;;;;;;33.27;21.00;;;2.60;31.70;;;;;;4938431;29;20191;-76
2022/01/16 13:19:50;;;;;;;32.73;21.03;;;2.60;15.90;;;;;;4934014;29;20746;-76